Terminal Aerodrome Forecast
Issued by NWS

Home | Current Version | Previous Version | Text Only | Print | Product List | Glossary On
Versions: 1 2 3 4 5 6 7 8 9 10 11 12
150
FTUS45 KTFX 191907 RRA
TAFLWT
TAF
KLWT 191907Z 1919/2018 29011KT P6SM BKN060
     FM192300 29010KT P6SM VCSH SCT040 BKN060
     FM200500 24011KT P6SM SCT110=

USA.gov is the U.S. government's official web portal to all federal, state and local government web resources and services.